Pagrindinis puslapis
METAR-TAF:

METAR-TAF

Oro uostai :

Hammerfest, Norvegija

platuma: 70-40N, ilguma: 023-40E, Aukštis: 8 m

Dabartinis oras

Ataskaita buvo paskelbta 47 minutes, ne 12:20 UTC
Vėjas 9 kt iš Rytų/Pietryčių, svyruoja nuo Rytų ir Pietų/Pietryčių
Temperatūra -3°C
Drėgmė 63%
Slėgis 1024 hPa
Matomumas 10 km arba daugiau
nėra debesų žemiau 1500 m ir nėra kamuolinių lietaus debesų

METAR: ENHF 201220Z 12009KT 080V150 CAVOK M03/M09 Q1024 RMK WIND 1254FT 13022KT

Laikas: 15:07 (13:07 UTC)

Prognozė

Ataskaita buvo paskelbta 2 valandos ir 7 minutes, ne 11:00 UTC
Prognozė galioja nuo 20 metu 12 UTC su 20 metu 21 UTC
Vėjas 8 kt iš Rytų/Pietryčių
Matomumas 10 km arba daugiau
nėra debesų žemiau 1500 m ir nėra kamuolinių lietaus debesų

TAF: ENHF 201100Z 2012/2021 12008KT CAVOK

Orai ataskaitas ir orų prognozės (METAR, TAF).

turimą stotys yra geltonos ir raudonos taškus žemėlapyje.

Perkelti pele per norėdami pamatyti stoties vardą.

Tada spustelėkite, norėdami matyti oro stebėjimo ir prognozės.

Norėdami pakeisti žemėlapį: spustelėkite ant žalios mygtukų su juodo kryžiaus žemyn,; žalią mygtuką su brūkšneliu, jei norite nutolinti; arba žalių rodyklių gretimoms žemėlapius.


METAR-TAF: